createdAt,value
2023-05-04T00:01:01.688Z,100936.47
2023-05-04T00:02:05.335Z,100932.78
2023-05-04T00:03:09.079Z,100939.47
2023-05-04T00:04:13.197Z,100931.97
2023-05-04T00:05:17.003Z,100938.19
2023-05-04T00:06:20.685Z,100943.25
2023-05-04T00:07:24.343Z,100945.78
2023-05-04T00:08:27.966Z,100935.41
2023-05-04T00:09:31.658Z,100946.31
2023-05-04T00:10:35.351Z,100947.63
2023-05-04T00:11:39.083Z,100947.28
2023-05-04T00:12:44.438Z,100947.38
2023-05-04T00:13:48.164Z,100954.97
2023-05-04T00:14:51.956Z,100954.19
2023-05-04T00:15:55.743Z,100957.63
2023-05-04T00:16:59.433Z,100951.41
2023-05-04T00:18:03.166Z,100957.53
2023-05-04T00:19:06.886Z,100966.38
2023-05-04T00:20:11.524Z,100961.53
2023-05-04T00:21:15.220Z,100962.34
2023-05-04T00:22:18.899Z,100936.13
2023-05-04T00:23:22.586Z,100964.66
2023-05-04T00:24:26.330Z,100955.41
2023-05-04T00:25:30.026Z,100965.47
2023-05-04T00:26:33.728Z,100970.53
2023-05-04T00:27:37.398Z,100968.56
2023-05-04T00:28:42.697Z,100973.06
2023-05-04T00:29:46.462Z,100970.50
2023-05-04T00:30:50.179Z,100972.59
2023-05-04T00:31:53.883Z,100974.56
2023-05-04T00:32:57.687Z,100973.25
2023-05-04T00:34:01.415Z,100976.69
2023-05-04T00:35:05.602Z,100979.19
2023-05-04T00:36:09.742Z,100982.41
2023-05-04T00:37:13.422Z,100971.81
2023-05-04T00:38:17.101Z,100978.25
2023-05-04T00:39:20.745Z,100992.16
2023-05-04T00:40:24.702Z,100982.63
2023-05-04T00:41:28.359Z,100987.44
2023-05-04T00:42:32.067Z,100987.44
2023-05-04T00:43:35.856Z,100995.28
2023-05-04T00:44:41.407Z,100999.56
2023-05-04T00:45:45.197Z,100987.91
2023-05-04T00:46:48.912Z,100989.06
2023-05-04T00:47:52.761Z,100994.13
2023-05-04T00:48:56.375Z,100986.69
2023-05-04T00:50:00.243Z,100994.13
2023-05-04T00:51:04.515Z,100998.22
2023-05-04T00:52:08.613Z,100999.47
2023-05-04T00:53:13.030Z,100970.84
2023-05-04T00:54:18.222Z,100998.22
2023-05-04T00:55:22.686Z,100999.47
2023-05-04T00:56:26.723Z,100995.22
2023-05-04T00:57:31.167Z,101003.06
2023-05-04T00:58:35.683Z,101004.78
2023-05-04T00:59:41.009Z,101009.84
2023-05-04T01:00:44.734Z,101006.81
2023-05-04T01:01:48.708Z,101004.97
2023-05-04T01:02:52.395Z,101008.88
2023-05-04T01:03:56.636Z,101000.28
2023-05-04T01:05:00.827Z,101002.06
2023-05-04T01:06:17.119Z,101004.31
2023-05-04T01:07:26.787Z,100999.31
2023-05-04T01:08:33.063Z,101006.69
2023-05-04T01:09:40.069Z,100996.84
2023-05-04T01:10:50.433Z,100999.66
2023-05-04T01:12:00.978Z,100985.47
2023-05-04T01:13:09.299Z,101013.31
2023-05-04T01:14:15.507Z,101012.03
2023-05-04T01:15:22.179Z,101005.28
2023-05-04T01:16:25.848Z,101012.28
2023-05-04T01:17:29.597Z,101013.88
2023-05-04T01:18:33.587Z,101022.38
2023-05-04T01:19:37.455Z,101026.16
2023-05-04T01:20:41.327Z,101022.09
2023-05-04T01:21:46.641Z,101021.31
2023-05-04T01:22:50.375Z,101031.84
2023-05-04T01:23:54.026Z,101026.75
2023-05-04T01:24:58.030Z,101027.38
2023-05-04T01:26:12.026Z,101020.44
2023-05-04T01:27:24.052Z,101028.34
2023-05-04T01:28:36.079Z,101030.41
2023-05-04T01:29:46.148Z,101039.88
2023-05-04T01:30:55.422Z,101011.75
2023-05-04T01:32:01.187Z,101026.06
2023-05-04T01:33:05.106Z,101017.47
2023-05-04T01:34:09.662Z,101027.09
2023-05-04T01:35:13.415Z,101030.63
2023-05-04T01:36:17.295Z,101029.88
2023-05-04T01:37:22.647Z,101033.09
2023-05-04T01:38:26.292Z,101035.03
2023-05-04T01:39:30.031Z,101028.34
2023-05-04T01:40:33.708Z,101032.97
2023-05-04T01:41:37.404Z,101032.56
2023-05-04T01:42:41.089Z,101032.53
2023-05-04T01:43:44.707Z,101025.94
2023-05-04T01:44:48.369Z,101027.56
2023-05-04T01:45:52.177Z,101027.28
2023-05-04T01:46:55.977Z,101023.16
2023-05-04T01:47:59.658Z,101034.06
2023-05-04T01:49:03.341Z,101029.22
2023-05-04T01:50:07.986Z,101022.25
2023-05-04T01:51:11.687Z,101031.94
2023-05-04T01:52:15.366Z,101029.34
2023-05-04T01:53:20.616Z,101027.19
2023-05-04T01:54:24.301Z,101037.56
2023-05-04T01:55:28.023Z,101030.31
2023-05-04T01:56:31.934Z,101027.91
2023-05-04T01:57:35.679Z,101025.13
2023-05-04T01:58:39.419Z,101025.88
2023-05-04T01:59:43.132Z,101028.34
2023-05-04T02:00:47.089Z,101038.03
2023-05-04T02:01:50.829Z,101018.38
2023-05-04T02:02:54.577Z,101032.91
2023-05-04T02:03:58.539Z,101010.41
2023-05-04T02:05:02.317Z,101026.69
2023-05-04T02:06:06.097Z,101029.09
2023-05-04T02:07:09.897Z,101030.25
2023-05-04T02:08:13.687Z,101030.78
2023-05-04T02:09:19.009Z,101023.97
2023-05-04T02:10:22.670Z,101030.81
2023-05-04T02:11:26.397Z,101026.69
2023-05-04T02:12:30.106Z,101025.41
2023-05-04T02:13:33.786Z,101024.81
2023-05-04T02:14:37.470Z,101019.81
2023-05-04T02:15:41.442Z,101024.56
2023-05-04T02:16:45.238Z,101027.94
2023-05-04T02:17:51.836Z,101024.03
2023-05-04T02:18:55.637Z,101029.31
2023-05-04T02:19:59.292Z,101021.72
2023-05-04T02:21:02.960Z,101026.25
2023-05-04T02:22:06.712Z,101025.28
2023-05-04T02:23:10.560Z,101023.03
2023-05-04T02:24:14.269Z,101028.31
2023-05-04T02:25:19.731Z,101015.47
2023-05-04T02:26:23.402Z,101019.66
2023-05-04T02:27:27.068Z,101013.81
2023-05-04T02:28:30.793Z,101017.94
2023-05-04T02:29:34.458Z,101016.84
2023-05-04T02:30:38.159Z,101015.81
2023-05-04T02:31:41.873Z,101022.38
2023-05-04T02:32:45.641Z,101019.38
2023-05-04T02:33:49.354Z,101008.19
2023-05-04T02:34:53.036Z,101022.31
2023-05-04T02:35:56.780Z,101019.75
2023-05-04T02:37:00.472Z,101019.00
2023-05-04T02:38:04.117Z,101020.34
2023-05-04T02:39:07.827Z,101023.28
2023-05-04T02:40:12.562Z,101015.06
2023-05-04T02:41:17.854Z,101022.00
2023-05-04T02:42:21.629Z,101019.84
2023-05-04T02:43:25.360Z,101029.31
2023-05-04T02:44:29.235Z,101001.47
2023-05-04T02:45:32.912Z,101009.78
2023-05-04T02:46:36.655Z,101008.94
2023-05-04T02:47:40.414Z,101021.41
2023-05-04T02:48:44.181Z,101011.50
2023-05-04T02:49:48.010Z,101015.59
2023-05-04T02:50:51.660Z,101022.09
2023-05-04T02:51:55.258Z,101020.16
2023-05-04T02:52:58.947Z,101016.94
2023-05-04T02:54:02.578Z,101025.84
2023-05-04T02:55:07.052Z,101018.97
2023-05-04T02:56:10.698Z,101012.56
2023-05-04T02:57:15.939Z,101012.22
2023-05-04T02:58:19.702Z,101011.84
2023-05-04T02:59:23.288Z,101004.91
2023-05-04T03:00:27.098Z,101009.25
2023-05-04T03:01:32.200Z,101000.47
2023-05-04T03:02:37.810Z,101006.22
2023-05-04T03:03:41.507Z,101008.53
2023-05-04T03:04:45.208Z,101000.66
2023-05-04T03:05:48.909Z,101002.31
2023-05-04T03:06:52.528Z,101003.13
2023-05-04T03:07:56.260Z,101010.00
2023-05-04T03:09:00.186Z,101000.88
2023-05-04T03:10:04.302Z,101004.47
2023-05-04T03:11:08.440Z,101004.00
2023-05-04T03:12:12.065Z,101007.38
2023-05-04T03:13:17.458Z,101008.09
2023-05-04T03:14:21.141Z,101002.19
2023-05-04T03:15:24.836Z,101003.44
2023-05-04T03:16:28.607Z,101005.94
2023-05-04T03:17:32.318Z,101009.34
2023-05-04T03:19:55.978Z,100996.38
2023-05-04T03:21:00.056Z,101000.69
2023-05-04T03:22:03.796Z,101003.41
2023-05-04T03:23:07.591Z,101000.03
2023-05-04T03:24:11.345Z,100991.66
2023-05-04T03:25:15.013Z,100997.38
2023-05-04T03:26:18.733Z,101007.16
2023-05-04T03:27:22.529Z,100984.13
2023-05-04T03:28:27.908Z,101004.63
2023-05-04T03:29:31.603Z,101003.44
2023-05-04T03:30:36.478Z,100993.44
2023-05-04T03:31:40.290Z,101000.03
2023-05-04T03:32:44.087Z,100997.88
2023-05-04T03:33:47.808Z,100997.38
2023-05-04T03:34:51.498Z,101000.47
2023-05-04T03:35:55.158Z,100993.78
2023-05-04T03:36:59.123Z,100984.75
2023-05-04T03:38:02.806Z,100994.53
2023-05-04T03:39:06.528Z,100989.22
2023-05-04T03:40:10.943Z,100992.75
2023-05-04T03:41:14.564Z,100990.16
2023-05-04T03:42:18.387Z,100982.34
2023-05-04T03:43:22.067Z,100987.88
2023-05-04T03:44:27.424Z,100982.91
2023-05-04T03:45:31.150Z,100986.13
2023-05-04T03:46:34.770Z,100993.94
2023-05-04T03:47:38.528Z,100988.81
2023-05-04T03:48:42.330Z,100983.66
2023-05-04T03:49:45.974Z,100982.66
2023-05-04T03:50:49.650Z,100957.47
2023-05-04T03:51:53.352Z,100971.53
2023-05-04T03:52:57.099Z,100975.34
2023-05-04T03:54:00.757Z,100978.59
2023-05-04T03:55:04.582Z,100970.50
2023-05-04T03:56:08.922Z,100969.69
2023-05-04T03:57:12.594Z,100934.25
2023-05-04T03:58:16.433Z,100960.88
2023-05-04T03:59:20.224Z,100962.41
2023-05-04T04:00:25.639Z,100970.75
2023-05-04T04:01:29.291Z,100970.47
2023-05-04T04:02:33.049Z,100961.63
2023-05-04T04:03:36.853Z,100967.63
2023-05-04T04:04:40.657Z,100958.22
2023-05-04T04:05:44.375Z,100956.59
2023-05-04T04:06:48.129Z,100958.69
2023-05-04T04:07:51.788Z,100962.16
2023-05-04T04:08:55.375Z,100961.53
2023-05-04T04:09:59.018Z,100948.72
2023-05-04T04:11:02.716Z,100956.00
2023-05-04T04:12:06.644Z,100958.50
2023-05-04T04:13:10.360Z,100959.44
2023-05-04T04:14:14.106Z,100951.72
2023-05-04T04:15:17.779Z,100961.44
2023-05-04T04:16:23.355Z,100962.63
2023-05-04T04:17:27.151Z,100956.22
2023-05-04T04:18:30.861Z,100955.16
2023-05-04T04:19:34.525Z,100951.75
2023-05-04T04:20:38.313Z,100959.00
2023-05-04T04:21:42.019Z,100950.31
2023-05-04T04:22:45.602Z,100952.75
2023-05-04T04:23:49.239Z,100950.38
2023-05-04T04:24:52.904Z,100957.47
2023-05-04T04:25:56.571Z,100946.81
2023-05-04T04:27:00.258Z,100951.56
2023-05-04T04:28:04.005Z,100949.03
2023-05-04T04:29:07.656Z,100942.19
2023-05-04T04:30:12.378Z,100945.44
2023-05-04T04:31:15.980Z,100945.88
2023-05-04T04:32:21.338Z,100935.94
2023-05-04T04:33:24.993Z,100943.84
2023-05-04T04:34:29.814Z,100934.81
2023-05-04T04:35:33.472Z,100941.00
2023-05-04T04:36:39.648Z,100934.66
2023-05-04T04:37:43.325Z,100932.75
2023-05-04T04:38:46.991Z,100917.50
2023-05-04T04:39:50.682Z,100934.28
2023-05-04T04:40:54.387Z,100936.16
2023-05-04T04:41:57.992Z,100938.31
2023-05-04T04:43:01.572Z,100935.97
2023-05-04T04:44:05.338Z,100931.44
2023-05-04T04:45:09.923Z,100933.03
2023-05-04T04:46:13.769Z,100924.44
2023-05-04T04:47:17.459Z,100919.28
2023-05-04T04:48:22.781Z,100930.28
2023-05-04T04:49:26.466Z,100928.06
2023-05-04T04:50:30.180Z,100937.47
2023-05-04T04:51:33.959Z,100936.22
2023-05-04T04:52:37.599Z,100932.25
2023-05-04T04:53:41.476Z,100928.81
2023-05-04T04:54:45.177Z,100931.25
2023-05-04T04:55:48.785Z,100936.41
2023-05-04T04:56:52.522Z,100934.19
2023-05-04T04:57:56.188Z,100927.91
2023-05-04T04:58:59.855Z,100930.66
2023-05-04T05:00:03.746Z,100928.41
2023-05-04T05:01:07.702Z,100922.84
2023-05-04T05:02:11.450Z,100917.88
2023-05-04T05:03:15.211Z,100913.19
2023-05-04T05:04:20.555Z,100919.69
2023-05-04T05:05:24.193Z,100899.50
2023-05-04T05:06:27.924Z,100901.56
2023-05-04T05:07:31.609Z,100901.63
2023-05-04T05:08:35.316Z,100906.25
2023-05-04T05:09:38.924Z,100905.22
2023-05-04T05:10:43.976Z,100891.25
2023-05-04T05:11:48.065Z,100891.19
2023-05-04T05:12:52.056Z,100888.56
2023-05-04T05:13:55.834Z,100889.03
2023-05-04T05:14:59.657Z,100887.56
2023-05-04T05:16:03.448Z,100887.59
2023-05-04T05:17:07.223Z,100882.00
2023-05-04T05:18:11.198Z,100877.63
2023-05-04T05:19:15.021Z,100860.88
2023-05-04T05:20:20.313Z,100870.25
2023-05-04T05:21:24.160Z,100865.53
2023-05-04T05:22:27.950Z,100857.59
2023-05-04T05:23:31.702Z,100855.63
2023-05-04T05:24:35.476Z,100859.31
2023-05-04T05:25:39.376Z,100856.38
2023-05-04T05:26:43.085Z,100861.34
2023-05-04T05:27:46.948Z,100861.41
2023-05-04T05:28:50.741Z,100861.94
2023-05-04T05:29:54.551Z,100853.28
2023-05-04T05:30:58.364Z,100856.47
2023-05-04T05:32:02.105Z,100856.88
2023-05-04T05:33:05.771Z,100841.72
2023-05-04T05:34:09.533Z,100842.16
2023-05-04T05:35:13.419Z,100841.28
2023-05-04T05:36:18.677Z,100838.94
2023-05-04T05:37:22.356Z,100836.50
2023-05-04T05:38:25.966Z,100837.72
2023-05-04T05:39:29.675Z,100834.19
2023-05-04T05:40:33.430Z,100837.47
2023-05-04T05:41:37.037Z,100834.69
2023-05-04T05:42:40.720Z,100817.47
2023-05-04T05:43:44.489Z,100823.28
2023-05-04T05:44:48.259Z,100831.56
2023-05-04T05:45:51.979Z,100821.31
2023-05-04T05:46:56.319Z,100822.94
2023-05-04T05:48:00.182Z,100819.81
2023-05-04T05:49:03.898Z,100820.56
2023-05-04T05:50:08.936Z,100815.19
2023-05-04T05:51:12.676Z,100811.66
2023-05-04T05:52:18.114Z,100812.50
2023-05-04T05:53:21.836Z,100808.59
2023-05-04T05:54:26.122Z,100804.63
2023-05-04T05:55:29.761Z,100803.91
2023-05-04T05:56:33.463Z,100797.81
2023-05-04T05:57:37.185Z,100795.63
2023-05-04T05:58:41.209Z,100789.44
2023-05-04T05:59:44.895Z,100800.53
2023-05-04T06:00:48.530Z,100791.69
2023-05-04T06:01:52.222Z,100785.19
2023-05-04T06:02:56.105Z,100796.97
2023-05-04T06:04:00.035Z,100792.88
2023-05-04T06:05:04.054Z,100790.16
2023-05-04T06:06:07.927Z,100791.44
2023-05-04T06:07:11.613Z,100775.13
2023-05-04T06:08:17.061Z,100773.28
2023-05-04T06:09:20.813Z,100780.00
2023-05-04T06:10:24.475Z,100780.63
2023-05-04T06:11:28.476Z,100775.50
2023-05-04T06:12:32.173Z,100774.97
2023-05-04T06:13:36.035Z,100761.66
2023-05-04T06:14:39.709Z,100767.31
2023-05-04T06:15:43.401Z,100762.56
2023-05-04T06:16:47.177Z,100741.50
2023-05-04T06:17:50.925Z,100763.91
2023-05-04T06:18:54.582Z,100759.56
2023-05-04T06:19:58.268Z,100761.88
2023-05-04T06:21:02.283Z,100760.75
2023-05-04T06:22:06.250Z,100754.25
2023-05-04T06:23:09.905Z,100754.25
2023-05-04T06:24:15.185Z,100751.72
2023-05-04T06:25:19.003Z,100725.41
2023-05-04T06:26:22.711Z,100752.34
2023-05-04T06:27:26.671Z,100735.91
2023-05-04T06:28:30.354Z,100729.03
2023-05-04T06:29:34.077Z,100735.13
2023-05-04T06:30:37.765Z,100728.09
2023-05-04T06:31:42.842Z,100718.47
2023-05-04T06:32:46.538Z,100729.13
2023-05-04T06:33:50.244Z,100717.38
2023-05-04T06:34:54.960Z,100711.50
2023-05-04T06:35:58.948Z,100719.69
2023-05-04T06:37:02.695Z,100708.19
2023-05-04T06:38:06.467Z,100699.94
2023-05-04T06:39:10.132Z,100710.06
2023-05-04T06:40:16.245Z,100695.41
2023-05-04T06:41:19.869Z,100697.06
2023-05-04T06:42:23.652Z,100695.66
2023-05-04T06:43:27.363Z,100692.66
2023-05-04T06:44:31.015Z,100686.03
2023-05-04T06:45:35.835Z,100689.69
2023-05-04T06:46:39.595Z,100686.16
2023-05-04T06:47:43.363Z,100682.06
2023-05-04T06:48:47.030Z,100686.53
2023-05-04T06:49:50.682Z,100686.34
2023-05-04T06:50:54.273Z,100682.88
2023-05-04T06:51:57.852Z,100676.50
2023-05-04T06:53:06.577Z,100669.38
2023-05-04T06:54:10.170Z,100675.31
2023-05-04T06:55:15.577Z,100665.72
2023-05-04T06:56:19.276Z,100659.41
2023-05-04T06:57:22.984Z,100652.75
2023-05-04T06:58:26.643Z,100655.47
2023-05-04T06:59:30.284Z,100651.22
2023-05-04T07:00:34.083Z,100650.78
2023-05-04T07:01:37.862Z,100648.81
2023-05-04T07:02:41.599Z,100642.22
2023-05-04T07:03:45.282Z,100640.00
2023-05-04T07:04:49.000Z,100643.16
2023-05-04T07:05:53.162Z,100637.59
2023-05-04T07:06:56.794Z,100641.41
2023-05-04T07:08:00.454Z,100640.34
2023-05-04T07:09:04.130Z,100649.09
2023-05-04T07:10:08.850Z,100641.59
2023-05-04T07:11:14.409Z,100649.50
2023-05-04T07:12:18.026Z,100649.97
2023-05-04T07:13:21.737Z,100641.66
2023-05-04T07:14:25.476Z,100645.66
2023-05-04T07:15:29.169Z,100646.69
2023-05-04T07:16:33.060Z,100638.00
2023-05-04T07:17:38.468Z,100640.19
2023-05-04T07:18:42.216Z,100636.41
2023-05-04T07:19:45.854Z,100634.84
2023-05-04T07:20:49.522Z,100634.47
2023-05-04T07:21:53.278Z,100633.25
2023-05-04T07:22:57.662Z,100634.88
2023-05-04T07:24:01.356Z,100638.00
2023-05-04T07:25:05.475Z,100627.31
2023-05-04T07:26:09.113Z,100603.84
2023-05-04T07:27:14.488Z,100621.06
2023-05-04T07:28:18.072Z,100625.84
2023-05-04T07:29:21.842Z,100614.25
2023-05-04T07:30:26.318Z,100615.06
2023-05-04T07:31:30.777Z,100612.75
2023-05-04T07:32:34.635Z,100606.22
2023-05-04T07:33:38.337Z,100607.81
2023-05-04T07:34:45.793Z,100582.84
2023-05-04T07:35:50.272Z,100601.94
2023-05-04T07:36:57.004Z,100605.56
2023-05-04T07:38:00.643Z,100599.19
2023-05-04T07:39:04.513Z,100594.06
2023-05-04T07:40:09.390Z,100588.16
2023-05-04T07:41:13.137Z,100588.16
2023-05-04T07:42:18.494Z,100586.50
2023-05-04T07:43:22.212Z,100576.19
2023-05-04T07:44:26.010Z,100578.22
2023-05-04T07:45:29.670Z,100580.56
2023-05-04T07:46:33.741Z,100574.56
2023-05-04T07:47:38.063Z,100567.75
2023-05-04T07:48:41.719Z,100574.22
2023-05-04T07:49:45.372Z,100574.56
2023-05-04T07:50:48.973Z,100574.63
2023-05-04T07:51:52.665Z,100572.22
2023-05-04T07:52:56.229Z,100562.28
2023-05-04T07:53:59.923Z,100561.50
2023-05-04T07:55:04.257Z,100556.75
2023-05-04T07:56:12.449Z,100574.13
2023-05-04T07:57:17.741Z,100555.47
2023-05-04T07:58:21.399Z,100558.31
2023-05-04T07:59:25.164Z,100555.50
2023-05-04T08:00:28.986Z,100539.88
2023-05-04T08:01:32.801Z,100553.81
2023-05-04T08:02:36.550Z,100546.34
2023-05-04T08:03:40.240Z,100542.00
2023-05-04T08:04:44.004Z,100541.63
2023-05-04T08:05:47.679Z,100538.13
2023-05-04T08:06:51.512Z,100537.63
2023-05-04T08:07:55.256Z,100530.09
2023-05-04T08:08:58.871Z,100518.59
2023-05-04T08:10:02.741Z,100514.56
2023-05-04T08:11:19.529Z,100511.81
2023-05-04T08:12:26.404Z,100510.59
2023-05-04T08:13:30.013Z,100501.06
2023-05-04T08:14:33.695Z,100497.47
2023-05-04T08:15:37.393Z,100508.69
2023-05-04T08:16:41.053Z,100499.91
2023-05-04T08:17:44.796Z,100509.41
2023-05-04T08:18:48.509Z,100509.47
2023-05-04T08:19:52.163Z,100499.50
2023-05-04T08:20:55.860Z,100505.47
2023-05-04T08:21:59.534Z,100502.34
2023-05-04T08:23:03.210Z,100469.28
2023-05-04T08:24:07.108Z,100495.94
2023-05-04T08:25:11.340Z,100489.16
2023-05-04T08:26:15.148Z,100498.69
2023-05-04T08:27:18.847Z,100476.06
2023-05-04T08:28:24.187Z,100479.63
2023-05-04T08:29:27.891Z,100469.28
2023-05-04T08:30:31.866Z,100475.66
2023-05-04T08:31:35.769Z,100461.31
2023-05-04T08:32:39.530Z,100480.00
2023-05-04T08:33:43.238Z,100479.59
2023-05-04T08:34:47.017Z,100476.84
2023-05-04T08:35:50.663Z,100474.44
2023-05-04T08:36:54.373Z,100463.31
2023-05-04T08:37:58.114Z,100458.16
2023-05-04T08:39:01.721Z,100460.13
2023-05-04T08:40:06.080Z,100462.91
2023-05-04T08:41:10.789Z,100439.44
2023-05-04T08:42:14.508Z,100455.38
2023-05-04T08:43:18.209Z,100454.16
2023-05-04T08:44:23.686Z,100451.00
2023-05-04T08:45:28.168Z,100452.56
2023-05-04T08:46:34.588Z,100443.03
2023-05-04T08:47:38.335Z,100439.84
2023-05-04T08:48:42.102Z,100441.84
2023-05-04T08:49:45.894Z,100439.03
2023-05-04T08:50:49.971Z,100441.03
2023-05-04T08:51:53.716Z,100432.28
2023-05-04T08:52:58.628Z,100441.03
2023-05-04T08:54:04.834Z,100441.38
2023-05-04T08:55:12.068Z,100443.38
2023-05-04T08:56:17.456Z,100434.63
2023-05-04T08:57:23.705Z,100418.75
2023-05-04T08:58:28.672Z,100428.66
2023-05-04T08:59:34.189Z,100442.22
2023-05-04T09:00:39.285Z,100423.09
2023-05-04T09:01:43.244Z,100418.72
2023-05-04T09:02:47.761Z,100417.97
2023-05-04T09:03:51.704Z,100418.75
2023-05-04T09:04:55.656Z,100420.72
2023-05-04T09:06:00.997Z,100421.13
2023-05-04T09:07:04.699Z,100417.16
2023-05-04T09:08:08.741Z,100409.22
2023-05-04T09:09:12.439Z,100407.19
2023-05-04T09:10:16.098Z,100402.44
2023-05-04T09:11:19.733Z,100405.63
2023-05-04T09:12:23.675Z,100409.19
2023-05-04T09:13:27.438Z,100403.59
2023-05-04T09:14:36.319Z,100408.38
2023-05-04T09:15:40.066Z,100401.63
2023-05-04T09:16:43.803Z,100413.13
2023-05-04T09:17:58.159Z,100409.63
2023-05-04T09:19:02.434Z,100407.59
2023-05-04T09:20:07.044Z,100398.09
2023-05-04T09:21:11.709Z,100404.81
2023-05-04T09:22:18.718Z,100400.44
2023-05-04T09:23:22.558Z,100403.22
2023-05-04T09:24:29.936Z,100397.25
2023-05-04T09:25:33.770Z,100403.63
2023-05-04T09:26:37.744Z,100408.44
2023-05-04T09:27:41.841Z,100396.09
2023-05-04T09:28:45.508Z,100400.88
2023-05-04T09:29:56.424Z,100400.88
2023-05-04T09:31:02.100Z,100401.25
2023-05-04T09:32:06.610Z,100395.28
2023-05-04T09:33:10.470Z,100398.47
2023-05-04T09:34:14.371Z,100393.72
2023-05-04T09:35:25.655Z,100391.72
2023-05-04T09:36:36.746Z,100401.25
2023-05-04T09:37:45.331Z,100396.47
2023-05-04T09:38:49.174Z,100404.41
2023-05-04T09:39:56.979Z,100395.66
2023-05-04T09:41:00.686Z,100395.28
2023-05-04T09:42:04.419Z,100383.75
2023-05-04T09:43:08.235Z,100399.22
2023-05-04T09:44:21.998Z,100384.56
2023-05-04T09:45:27.703Z,100379.38
2023-05-04T09:46:31.737Z,100383.31
2023-05-04T09:47:39.668Z,100389.66
2023-05-04T09:48:51.855Z,100390.84
2023-05-04T09:49:55.586Z,100394.03
2023-05-04T09:51:00.430Z,100378.16
2023-05-04T09:52:05.179Z,100388.06
2023-05-04T09:53:09.559Z,100391.63
2023-05-04T09:54:15.150Z,100386.88
2023-05-04T09:55:19.985Z,100388.50
2023-05-04T09:56:33.330Z,100391.53
2023-05-04T09:57:37.764Z,100398.75
2023-05-04T09:58:43.109Z,100394.41
2023-05-04T09:59:47.107Z,100397.19
2023-05-04T10:00:53.023Z,100399.19
2023-05-04T10:01:58.697Z,100396.00
2023-05-04T10:03:06.429Z,100399.97
2023-05-04T10:04:10.333Z,100399.19
2023-05-04T10:05:16.889Z,100395.19
2023-05-04T10:06:21.427Z,100393.19
2023-05-04T10:07:25.910Z,100392.41
2023-05-04T10:08:29.925Z,100398.78
2023-05-04T10:09:34.724Z,100402.31
2023-05-04T10:10:40.128Z,100382.41
2023-05-04T10:11:45.056Z,100405.13
2023-05-04T10:12:48.910Z,100409.09
2023-05-04T10:13:55.441Z,100403.13
2023-05-04T10:14:59.498Z,100413.47
2023-05-04T10:16:19.797Z,100412.28
2023-05-04T10:17:35.974Z,100413.44
2023-05-04T10:19:09.055Z,100419.41
2023-05-04T10:20:31.009Z,100424.97
2023-05-04T10:21:45.866Z,100425.72
2023-05-04T10:23:42.867Z,100436.22
2023-05-04T10:25:09.749Z,100418.31
2023-05-04T10:26:42.674Z,100415.44
2023-05-04T10:27:58.198Z,100407.13
2023-05-04T10:29:13.910Z,100428.63
2023-05-04T10:30:18.859Z,100409.06
2023-05-04T10:31:24.419Z,100434.44
2023-05-04T10:32:28.434Z,100429.28
2023-05-04T10:33:39.837Z,100416.97
2023-05-04T10:34:43.603Z,100412.56
2023-05-04T10:35:53.947Z,100429.31
2023-05-04T10:36:58.309Z,100434.91
2023-05-04T10:38:02.021Z,100434.75
2023-05-04T10:39:06.194Z,100434.34
2023-05-04T10:40:10.489Z,100417.25
2023-05-04T10:41:17.882Z,100435.13
2023-05-04T10:42:22.437Z,100433.47
2023-05-04T10:43:26.078Z,100433.44
2023-05-04T10:44:30.293Z,100434.63
2023-05-04T10:45:37.975Z,100438.25
2023-05-04T10:46:43.377Z,100432.75
2023-05-04T10:47:47.034Z,100443.56
2023-05-04T10:48:51.386Z,100424.34
2023-05-04T10:50:02.679Z,100441.94
2023-05-04T10:51:06.390Z,100448.66
2023-05-04T10:52:12.162Z,100432.28
2023-05-04T10:53:17.082Z,100441.44
2023-05-04T10:54:20.839Z,100453.19
2023-05-04T10:55:25.319Z,100450.69
2023-05-04T10:56:29.421Z,100445.13
2023-05-04T10:57:33.137Z,100459.41
2023-05-04T10:58:36.802Z,100449.88
2023-05-04T10:59:41.128Z,100443.16
2023-05-04T11:00:47.725Z,100459.13
2023-05-04T11:01:53.168Z,100444.59
2023-05-04T11:03:04.711Z,100449.09
2023-05-04T11:04:18.572Z,100439.19
2023-05-04T11:05:22.315Z,100466.78
2023-05-04T11:06:26.384Z,100474.31
2023-05-04T11:07:37.636Z,100474.59
2023-05-04T11:08:41.851Z,100466.53
2023-05-04T11:09:45.489Z,100482.31
2023-05-04T11:10:49.917Z,100482.91
2023-05-04T11:11:54.287Z,100492.97
2023-05-04T11:12:58.078Z,100487.41
2023-05-04T11:14:02.073Z,100465.13
2023-05-04T11:15:08.000Z,100470.81
2023-05-04T11:16:12.132Z,100482.09
2023-05-04T11:18:33.397Z,100479.63
2023-05-04T11:19:37.227Z,100477.44
2023-05-04T11:20:41.132Z,100483.22
2023-05-04T11:21:44.851Z,100489.56
2023-05-04T11:22:48.939Z,100489.75
2023-05-04T11:23:56.556Z,100486.66
2023-05-04T11:25:00.344Z,100493.38
2023-05-04T11:26:07.945Z,100478.25
2023-05-04T11:27:22.844Z,100503.09
2023-05-04T11:28:36.710Z,100503.59
2023-05-04T11:29:40.315Z,100506.28
2023-05-04T11:30:44.044Z,100516.66
2023-05-04T11:31:55.715Z,100505.03
2023-05-04T11:33:01.496Z,100515.69
2023-05-04T11:34:05.128Z,100510.50
2023-05-04T11:35:10.497Z,100516.16
2023-05-04T11:36:14.279Z,100522.50
2023-05-04T11:37:17.866Z,100511.03
2023-05-04T11:38:21.537Z,100511.31
2023-05-04T11:39:25.233Z,100509.03
2023-05-04T11:40:28.923Z,100510.25
2023-05-04T11:41:33.246Z,100505.94
2023-05-04T11:42:38.041Z,100508.00
2023-05-04T11:43:44.106Z,100509.19
2023-05-04T11:44:48.194Z,100508.50
2023-05-04T11:45:52.646Z,100516.56
2023-05-04T11:46:56.563Z,100508.56
2023-05-04T11:48:02.385Z,100523.81
2023-05-04T11:49:06.450Z,100529.69
2023-05-04T11:50:12.710Z,100522.47
2023-05-04T11:51:16.507Z,100515.41
2023-05-04T11:52:23.932Z,100526.84
2023-05-04T11:53:27.661Z,100520.59
2023-05-04T11:54:31.413Z,100519.84
2023-05-04T11:55:35.907Z,100476.34
2023-05-04T11:56:43.158Z,100515.16
2023-05-04T11:57:56.525Z,100514.09
2023-05-04T11:59:09.529Z,100504.69
2023-05-04T12:00:14.416Z,100511.41
2023-05-04T12:01:18.188Z,100517.56
2023-05-04T12:02:22.033Z,100504.19
2023-05-04T12:03:39.768Z,100509.03
2023-05-04T12:04:52.190Z,100507.28
2023-05-04T12:05:57.249Z,100515.69
2023-05-04T12:07:01.830Z,100516.56
2023-05-04T12:08:05.857Z,100519.34
2023-05-04T12:09:09.524Z,100502.72
2023-05-04T12:10:13.302Z,100528.81
2023-05-04T12:11:18.053Z,100527.94
2023-05-04T12:12:21.911Z,100528.81
2023-05-04T12:13:25.572Z,100524.00
2023-05-04T12:14:29.188Z,100522.56
2023-05-04T12:15:34.011Z,100527.34
2023-05-04T12:16:38.345Z,100515.41
2023-05-04T12:17:42.702Z,100531.16
2023-05-04T12:18:48.832Z,100527.53
2023-05-04T12:19:54.430Z,100519.81
2023-05-04T12:21:07.972Z,100532.38
2023-05-04T12:22:11.720Z,100533.38
2023-05-04T12:23:15.452Z,100532.38